sensor_id;sensor_type;location;lat;lon;timestamp;P1;P2;P0
55459;PMS5003;41326;45.302;-122.946;2023-03-01T00:01:01;0;0;
55459;PMS5003;41326;45.302;-122.946;2023-03-01T00:03:31;0;0;
55459;PMS5003;41326;45.302;-122.946;2023-03-01T00:06:01;0;0;
55459;PMS5003;41326;45.302;-122.946;2023-03-01T00:08:32;0;0;
55459;PMS5003;41326;45.302;-122.946;2023-03-01T00:11:03;0;0;
55459;PMS5003;41326;45.302;-122.946;2023-03-01T00:13:32;0;0;
55459;PMS5003;41326;45.302;-122.946;2023-03-01T00:16:03;0;0;
55459;PMS5003;41326;45.302;-122.946;2023-03-01T00:18:33;0;0;
55459;PMS5003;41326;45.302;-122.946;2023-03-01T00:21:03;0;0;
55459;PMS5003;41326;45.302;-122.946;2023-03-01T00:23:34;0;0;
55459;PMS5003;41326;45.302;-122.946;2023-03-01T00:26:06;0;0;
55459;PMS5003;41326;45.302;-122.946;2023-03-01T00:28:34;0;0;
55459;PMS5003;41326;45.302;-122.946;2023-03-01T00:31:05;1;0;
55459;PMS5003;41326;45.302;-122.946;2023-03-01T00:33:35;0;0;
55459;PMS5003;41326;45.302;-122.946;2023-03-01T00:36:06;1;0;
55459;PMS5003;41326;45.302;-122.946;2023-03-01T00:38:36;0;0;
55459;PMS5003;41326;45.302;-122.946;2023-03-01T00:41:06;0;0;
55459;PMS5003;41326;45.302;-122.946;2023-03-01T00:43:36;0;0;
55459;PMS5003;41326;45.302;-122.946;2023-03-01T00:46:07;2;1;
55459;PMS5003;41326;45.302;-122.946;2023-03-01T00:48:37;0;0;
55459;PMS5003;41326;45.302;-122.946;2023-03-01T00:51:07;0;0;
55459;PMS5003;41326;45.302;-122.946;2023-03-01T00:53:38;0;0;
55459;PMS5003;41326;45.302;-122.946;2023-03-01T00:56:09;0;0;
55459;PMS5003;41326;45.302;-122.946;2023-03-01T00:58:39;1;1;
55459;PMS5003;41326;45.302;-122.946;2023-03-01T01:01:09;0;0;
55459;PMS5003;41326;45.302;-122.946;2023-03-01T01:03:39;0;0;
55459;PMS5003;41326;45.302;-122.946;2023-03-01T01:06:13;0;0;
55459;PMS5003;41326;45.302;-122.946;2023-03-01T01:08:40;0;0;
55459;PMS5003;41326;45.302;-122.946;2023-03-01T01:11:10;0;0;
55459;PMS5003;41326;45.302;-122.946;2023-03-01T01:13:40;0;0;
55459;PMS5003;41326;45.302;-122.946;2023-03-01T01:16:10;0;0;
55459;PMS5003;41326;45.302;-122.946;2023-03-01T01:18:40;0;0;
55459;PMS5003;41326;45.302;-122.946;2023-03-01T01:21:11;1;0;
55459;PMS5003;41326;45.302;-122.946;2023-03-01T01:23:42;0;0;
55459;PMS5003;41326;45.302;-122.946;2023-03-01T01:26:12;0;0;
55459;PMS5003;41326;45.302;-122.946;2023-03-01T01:28:42;0;0;
55459;PMS5003;41326;45.302;-122.946;2023-03-01T01:31:12;1;0;
55459;PMS5003;41326;45.302;-122.946;2023-03-01T01:33:42;0;0;
55459;PMS5003;41326;45.302;-122.946;2023-03-01T01:36:13;0;0;
55459;PMS5003;41326;45.302;-122.946;2023-03-01T01:38:44;0;0;
55459;PMS5003;41326;45.302;-122.946;2023-03-01T01:41:14;0;0;
55459;PMS5003;41326;45.302;-122.946;2023-03-01T01:43:45;0;0;
55459;PMS5003;41326;45.302;-122.946;2023-03-01T01:46:19;0;0;
55459;PMS5003;41326;45.302;-122.946;2023-03-01T01:48:46;0;0;
55459;PMS5003;41326;45.302;-122.946;2023-03-01T01:51:17;0;0;
55459;PMS5003;41326;45.302;-122.946;2023-03-01T01:53:46;0;0;
55459;PMS5003;41326;45.302;-122.946;2023-03-01T01:56:16;0;0;
55459;PMS5003;41326;45.302;-122.946;2023-03-01T01:58:46;0;0;
55459;PMS5003;41326;45.302;-122.946;2023-03-01T02:01:16;0;0;
55459;PMS5003;41326;45.302;-122.946;2023-03-01T02:03:47;2;0;
55459;PMS5003;41326;45.302;-122.946;2023-03-01T02:06:19;0;0;
55459;PMS5003;41326;45.302;-122.946;2023-03-01T02:08:48;0;0;
55459;PMS5003;41326;45.302;-122.946;2023-03-01T02:11:18;0;0;
55459;PMS5003;41326;45.302;-122.946;2023-03-01T02:13:49;0;0;
55459;PMS5003;41326;45.302;-122.946;2023-03-01T02:16:19;0;0;
55459;PMS5003;41326;45.302;-122.946;2023-03-01T02:18:49;0;0;
55459;PMS5003;41326;45.302;-122.946;2023-03-01T02:21:25;0;0;
55459;PMS5003;41326;45.302;-122.946;2023-03-01T02:23:50;0;0;
55459;PMS5003;41326;45.302;-122.946;2023-03-01T02:26:21;0;0;
55459;PMS5003;41326;45.302;-122.946;2023-03-01T02:28:51;0;0;
55459;PMS5003;41326;45.302;-122.946;2023-03-01T02:32:29;1;0;
55459;PMS5003;41326;45.302;-122.946;2023-03-01T02:34:59;0;0;
55459;PMS5003;41326;45.302;-122.946;2023-03-01T02:37:29;0;0;
55459;PMS5003;41326;45.302;-122.946;2023-03-01T02:40:03;0;0;
55459;PMS5003;41326;45.302;-122.946;2023-03-01T02:42:32;0;0;
55459;PMS5003;41326;45.302;-122.946;2023-03-01T02:45:01;0;0;
55459;PMS5003;41326;45.302;-122.946;2023-03-01T02:47:31;0;0;
55459;PMS5003;41326;45.302;-122.946;2023-03-01T02:50:02;0;0;
55459;PMS5003;41326;45.302;-122.946;2023-03-01T02:52:36;0;0;
55459;PMS5003;41326;45.302;-122.946;2023-03-01T02:55:03;0;0;
55459;PMS5003;41326;45.302;-122.946;2023-03-01T02:57:33;0;0;
55459;PMS5003;41326;45.302;-122.946;2023-03-01T03:00:04;0;0;
55459;PMS5003;41326;45.302;-122.946;2023-03-01T03:02:42;1;0;
55459;PMS5003;41326;45.302;-122.946;2023-03-01T03:05:13;0;0;
55459;PMS5003;41326;45.302;-122.946;2023-03-01T03:07:44;1;0;
55459;PMS5003;41326;45.302;-122.946;2023-03-01T03:10:17;0;0;
55459;PMS5003;41326;45.302;-122.946;2023-03-01T03:12:43;0;0;
55459;PMS5003;41326;45.302;-122.946;2023-03-01T03:15:14;0;0;
55459;PMS5003;41326;45.302;-122.946;2023-03-01T03:17:44;0;0;
55459;PMS5003;41326;45.302;-122.946;2023-03-01T03:20:15;0;0;
55459;PMS5003;41326;45.302;-122.946;2023-03-01T03:22:45;0;0;
55459;PMS5003;41326;45.302;-122.946;2023-03-01T03:25:16;0;0;
55459;PMS5003;41326;45.302;-122.946;2023-03-01T03:27:47;0;0;
55459;PMS5003;41326;45.302;-122.946;2023-03-01T03:30:17;0;0;
55459;PMS5003;41326;45.302;-122.946;2023-03-01T03:32:47;0;0;
55459;PMS5003;41326;45.302;-122.946;2023-03-01T03:35:17;0;0;
55459;PMS5003;41326;45.302;-122.946;2023-03-01T03:37:47;0;0;
55459;PMS5003;41326;45.302;-122.946;2023-03-01T03:40:18;0;0;
55459;PMS5003;41326;45.302;-122.946;2023-03-01T03:42:48;0;0;
55459;PMS5003;41326;45.302;-122.946;2023-03-01T03:45:18;0;0;
55459;PMS5003;41326;45.302;-122.946;2023-03-01T03:47:49;0;0;
55459;PMS5003;41326;45.302;-122.946;2023-03-01T03:50:19;0;0;
55459;PMS5003;41326;45.302;-122.946;2023-03-01T03:52:49;0;0;
55459;PMS5003;41326;45.302;-122.946;2023-03-01T03:55:20;0;0;
55459;PMS5003;41326;45.302;-122.946;2023-03-01T03:57:50;0;0;
55459;PMS5003;41326;45.302;-122.946;2023-03-01T04:00:21;0;0;
55459;PMS5003;41326;45.302;-122.946;2023-03-01T04:02:51;0;0;
55459;PMS5003;41326;45.302;-122.946;2023-03-01T04:05:21;0;0;
55459;PMS5003;41326;45.302;-122.946;2023-03-01T04:07:52;0;0;
55459;PMS5003;41326;45.302;-122.946;2023-03-01T04:10:22;0;0;
55459;PMS5003;41326;45.302;-122.946;2023-03-01T04:12:53;0;0;
55459;PMS5003;41326;45.302;-122.946;2023-03-01T04:15:23;0;0;
55459;PMS5003;41326;45.302;-122.946;2023-03-01T04:17:54;0;0;
55459;PMS5003;41326;45.302;-122.946;2023-03-01T04:20:25;0;0;
55459;PMS5003;41326;45.302;-122.946;2023-03-01T04:22:57;0;0;
55459;PMS5003;41326;45.302;-122.946;2023-03-01T04:25:24;0;0;
55459;PMS5003;41326;45.302;-122.946;2023-03-01T04:27:55;0;0;
55459;PMS5003;41326;45.302;-122.946;2023-03-01T04:30:25;0;0;
55459;PMS5003;41326;45.302;-122.946;2023-03-01T04:32:55;0;0;
55459;PMS5003;41326;45.302;-122.946;2023-03-01T04:35:25;0;0;
55459;PMS5003;41326;45.302;-122.946;2023-03-01T04:37:56;0;0;
55459;PMS5003;41326;45.302;-122.946;2023-03-01T04:40:26;0;0;
55459;PMS5003;41326;45.302;-122.946;2023-03-01T04:42:56;0;0;
55459;PMS5003;41326;45.302;-122.946;2023-03-01T04:45:27;0;0;
55459;PMS5003;41326;45.302;-122.946;2023-03-01T04:47:57;0;0;
55459;PMS5003;41326;45.302;-122.946;2023-03-01T04:50:27;0;0;
55459;PMS5003;41326;45.302;-122.946;2023-03-01T04:52:57;0;0;
55459;PMS5003;41326;45.302;-122.946;2023-03-01T04:55:28;0;0;
55459;PMS5003;41326;45.302;-122.946;2023-03-01T04:57:58;0;0;
55459;PMS5003;41326;45.302;-122.946;2023-03-01T05:00:29;0;0;
55459;PMS5003;41326;45.302;-122.946;2023-03-01T05:02:59;0;0;
55459;PMS5003;41326;45.302;-122.946;2023-03-01T05:05:30;1;0;
55459;PMS5003;41326;45.302;-122.946;2023-03-01T05:08:00;0;0;
55459;PMS5003;41326;45.302;-122.946;2023-03-01T05:10:30;0;0;
55459;PMS5003;41326;45.302;-122.946;2023-03-01T05:13:00;0;0;
55459;PMS5003;41326;45.302;-122.946;2023-03-01T05:15:31;0;0;
55459;PMS5003;41326;45.302;-122.946;2023-03-01T05:18:01;1;0;
55459;PMS5003;41326;45.302;-122.946;2023-03-01T05:20:31;0;0;
55459;PMS5003;41326;45.302;-122.946;2023-03-01T05:23:01;0;0;
55459;PMS5003;41326;45.302;-122.946;2023-03-01T05:25:31;0;0;
55459;PMS5003;41326;45.302;-122.946;2023-03-01T05:28:02;0;0;
55459;PMS5003;41326;45.302;-122.946;2023-03-01T05:30:32;0;0;
55459;PMS5003;41326;45.302;-122.946;2023-03-01T05:33:03;0;0;
55459;PMS5003;41326;45.302;-122.946;2023-03-01T05:35:33;0;0;
55459;PMS5003;41326;45.302;-122.946;2023-03-01T05:38:03;0;0;
55459;PMS5003;41326;45.302;-122.946;2023-03-01T05:40:34;0;0;
55459;PMS5003;41326;45.302;-122.946;2023-03-01T05:43:04;0;0;
55459;PMS5003;41326;45.302;-122.946;2023-03-01T05:45:35;0;0;
55459;PMS5003;41326;45.302;-122.946;2023-03-01T05:48:05;0;0;
55459;PMS5003;41326;45.302;-122.946;2023-03-01T05:50:37;0;0;
55459;PMS5003;41326;45.302;-122.946;2023-03-01T05:53:06;0;0;
55459;PMS5003;41326;45.302;-122.946;2023-03-01T05:55:36;0;0;
55459;PMS5003;41326;45.302;-122.946;2023-03-01T05:58:07;0;0;
55459;PMS5003;41326;45.302;-122.946;2023-03-01T06:00:37;0;0;
55459;PMS5003;41326;45.302;-122.946;2023-03-01T06:03:09;0;0;
55459;PMS5003;41326;45.302;-122.946;2023-03-01T06:05:37;0;0;
55459;PMS5003;41326;45.302;-122.946;2023-03-01T06:08:09;0;0;
55459;PMS5003;41326;45.302;-122.946;2023-03-01T06:10:38;0;0;
55459;PMS5003;41326;45.302;-122.946;2023-03-01T06:13:09;0;0;
55459;PMS5003;41326;45.302;-122.946;2023-03-01T06:15:39;0;0;
55459;PMS5003;41326;45.302;-122.946;2023-03-01T06:18:10;0;0;
55459;PMS5003;41326;45.302;-122.946;2023-03-01T06:20:41;0;0;
55459;PMS5003;41326;45.302;-122.946;2023-03-01T06:23:11;0;0;
55459;PMS5003;41326;45.302;-122.946;2023-03-01T06:25:41;0;0;
55459;PMS5003;41326;45.302;-122.946;2023-03-01T06:28:11;0;0;
55459;PMS5003;41326;45.302;-122.946;2023-03-01T06:30:42;0;0;
55459;PMS5003;41326;45.302;-122.946;2023-03-01T06:33:13;0;0;
55459;PMS5003;41326;45.302;-122.946;2023-03-01T06:35:42;0;0;
55459;PMS5003;41326;45.302;-122.946;2023-03-01T06:38:13;0;0;
55459;PMS5003;41326;45.302;-122.946;2023-03-01T06:40:43;0;0;
55459;PMS5003;41326;45.302;-122.946;2023-03-01T06:43:13;0;0;
55459;PMS5003;41326;45.302;-122.946;2023-03-01T06:45:44;0;0;
55459;PMS5003;41326;45.302;-122.946;2023-03-01T06:48:14;0;0;
55459;PMS5003;41326;45.302;-122.946;2023-03-01T06:50:45;0;0;
55459;PMS5003;41326;45.302;-122.946;2023-03-01T06:53:15;0;0;
55459;PMS5003;41326;45.302;-122.946;2023-03-01T06:55:45;0;0;
55459;PMS5003;41326;45.302;-122.946;2023-03-01T06:58:16;0;0;
55459;PMS5003;41326;45.302;-122.946;2023-03-01T07:00:46;0;0;
55459;PMS5003;41326;45.302;-122.946;2023-03-01T07:03:16;1;0;
55459;PMS5003;41326;45.302;-122.946;2023-03-01T07:05:48;0;0;
55459;PMS5003;41326;45.302;-122.946;2023-03-01T07:08:16;0;0;
55459;PMS5003;41326;45.302;-122.946;2023-03-01T07:10:47;0;0;
55459;PMS5003;41326;45.302;-122.946;2023-03-01T07:13:17;0;0;
55459;PMS5003;41326;45.302;-122.946;2023-03-01T07:15:48;0;0;
55459;PMS5003;41326;45.302;-122.946;2023-03-01T07:18:18;0;0;
55459;PMS5003;41326;45.302;-122.946;2023-03-01T07:20:48;0;0;
55459;PMS5003;41326;45.302;-122.946;2023-03-01T07:23:19;0;0;
55459;PMS5003;41326;45.302;-122.946;2023-03-01T07:25:51;0;0;
55459;PMS5003;41326;45.302;-122.946;2023-03-01T07:28:20;0;0;
55459;PMS5003;41326;45.302;-122.946;2023-03-01T07:30:50;0;0;
55459;PMS5003;41326;45.302;-122.946;2023-03-01T07:33:21;0;0;
55459;PMS5003;41326;45.302;-122.946;2023-03-01T07:35:55;0;0;
55459;PMS5003;41326;45.302;-122.946;2023-03-01T07:38:22;0;0;
55459;PMS5003;41326;45.302;-122.946;2023-03-01T07:40:52;0;0;
55459;PMS5003;41326;45.302;-122.946;2023-03-01T07:43:23;0;0;
55459;PMS5003;41326;45.302;-122.946;2023-03-01T07:45:54;0;0;
55459;PMS5003;41326;45.302;-122.946;2023-03-01T07:48:24;0;0;
55459;PMS5003;41326;45.302;-122.946;2023-03-01T07:50:55;0;0;
55459;PMS5003;41326;45.302;-122.946;2023-03-01T07:53:25;0;0;
55459;PMS5003;41326;45.302;-122.946;2023-03-01T07:58:25;0;0;
55459;PMS5003;41326;45.302;-122.946;2023-03-01T08:00:55;0;0;
55459;PMS5003;41326;45.302;-122.946;2023-03-01T08:03:26;0;0;
55459;PMS5003;41326;45.302;-122.946;2023-03-01T08:05:59;0;0;
55459;PMS5003;41326;45.302;-122.946;2023-03-01T08:08:27;0;0;
55459;PMS5003;41326;45.302;-122.946;2023-03-01T08:10:57;0;0;
55459;PMS5003;41326;45.302;-122.946;2023-03-01T08:13:27;0;0;
55459;PMS5003;41326;45.302;-122.946;2023-03-01T08:16:00;0;0;
55459;PMS5003;41326;45.302;-122.946;2023-03-01T08:18:28;0;0;
55459;PMS5003;41326;45.302;-122.946;2023-03-01T08:21:01;0;0;
55459;PMS5003;41326;45.302;-122.946;2023-03-01T08:23:29;0;0;
55459;PMS5003;41326;45.302;-122.946;2023-03-01T08:28:30;0;0;
55459;PMS5003;41326;45.302;-122.946;2023-03-01T08:31:00;0;0;
55459;PMS5003;41326;45.302;-122.946;2023-03-01T08:33:30;0;0;
55459;PMS5003;41326;45.302;-122.946;2023-03-01T08:36:02;0;0;
55459;PMS5003;41326;45.302;-122.946;2023-03-01T08:38:31;0;0;
55459;PMS5003;41326;45.302;-122.946;2023-03-01T08:41:02;0;0;
55459;PMS5003;41326;45.302;-122.946;2023-03-01T08:43:31;0;0;
55459;PMS5003;41326;45.302;-122.946;2023-03-01T08:46:02;0;0;
55459;PMS5003;41326;45.302;-122.946;2023-03-01T08:48:31;0;0;
55459;PMS5003;41326;45.302;-122.946;2023-03-01T08:53:33;0;0;
55459;PMS5003;41326;45.302;-122.946;2023-03-01T08:56:03;0;0;
55459;PMS5003;41326;45.302;-122.946;2023-03-01T08:58:34;0;0;
55459;PMS5003;41326;45.302;-122.946;2023-03-01T09:01:07;0;0;
55459;PMS5003;41326;45.302;-122.946;2023-03-01T09:03:34;0;0;
55459;PMS5003;41326;45.302;-122.946;2023-03-01T09:06:05;0;0;
55459;PMS5003;41326;45.302;-122.946;2023-03-01T09:08:36;0;0;
55459;PMS5003;41326;45.302;-122.946;2023-03-01T09:11:06;0;0;
55459;PMS5003;41326;45.302;-122.946;2023-03-01T09:13:36;0;0;
55459;PMS5003;41326;45.302;-122.946;2023-03-01T09:16:07;0;0;
55459;PMS5003;41326;45.302;-122.946;2023-03-01T09:18:37;0;0;
55459;PMS5003;41326;45.302;-122.946;2023-03-01T09:21:07;0;0;
55459;PMS5003;41326;45.302;-122.946;2023-03-01T09:23:38;0;0;
55459;PMS5003;41326;45.302;-122.946;2023-03-01T09:26:08;0;0;
55459;PMS5003;41326;45.302;-122.946;2023-03-01T09:28:38;0;0;
55459;PMS5003;41326;45.302;-122.946;2023-03-01T09:31:09;0;0;
55459;PMS5003;41326;45.302;-122.946;2023-03-01T09:33:39;0;0;
55459;PMS5003;41326;45.302;-122.946;2023-03-01T09:36:11;0;0;
55459;PMS5003;41326;45.302;-122.946;2023-03-01T09:38:39;0;0;
55459;PMS5003;41326;45.302;-122.946;2023-03-01T09:41:11;0;0;
55459;PMS5003;41326;45.302;-122.946;2023-03-01T09:43:42;0;0;
55459;PMS5003;41326;45.302;-122.946;2023-03-01T09:46:12;0;0;
55459;PMS5003;41326;45.302;-122.946;2023-03-01T09:48:42;1;0;
55459;PMS5003;41326;45.302;-122.946;2023-03-01T09:51:14;0;0;
55459;PMS5003;41326;45.302;-122.946;2023-03-01T09:53:42;0;0;
55459;PMS5003;41326;45.302;-122.946;2023-03-01T09:56:13;0;0;
55459;PMS5003;41326;45.302;-122.946;2023-03-01T09:58:46;0;0;
55459;PMS5003;41326;45.302;-122.946;2023-03-01T10:03:44;0;0;
55459;PMS5003;41326;45.302;-122.946;2023-03-01T10:06:14;0;0;
55459;PMS5003;41326;45.302;-122.946;2023-03-01T10:08:46;0;0;
55459;PMS5003;41326;45.302;-122.946;2023-03-01T10:11:20;0;0;
55459;PMS5003;41326;45.302;-122.946;2023-03-01T10:13:46;0;0;
55459;PMS5003;41326;45.302;-122.946;2023-03-01T10:16:16;0;0;
55459;PMS5003;41326;45.302;-122.946;2023-03-01T10:18:46;0;0;
55459;PMS5003;41326;45.302;-122.946;2023-03-01T10:21:17;0;0;
55459;PMS5003;41326;45.302;-122.946;2023-03-01T10:23:48;0;0;
55459;PMS5003;41326;45.302;-122.946;2023-03-01T10:26:23;0;0;
55459;PMS5003;41326;45.302;-122.946;2023-03-01T10:28:50;0;0;
55459;PMS5003;41326;45.302;-122.946;2023-03-01T10:31:19;0;0;
55459;PMS5003;41326;45.302;-122.946;2023-03-01T10:33:48;0;0;
55459;PMS5003;41326;45.302;-122.946;2023-03-01T10:36:18;0;0;
55459;PMS5003;41326;45.302;-122.946;2023-03-01T10:38:50;0;0;
55459;PMS5003;41326;45.302;-122.946;2023-03-01T10:41:20;0;0;
55459;PMS5003;41326;45.302;-122.946;2023-03-01T10:43:50;0;0;
55459;PMS5003;41326;45.302;-122.946;2023-03-01T10:46:24;0;0;
55459;PMS5003;41326;45.302;-122.946;2023-03-01T10:51:20;0;0;
55459;PMS5003;41326;45.302;-122.946;2023-03-01T10:53:51;0;0;
55459;PMS5003;41326;45.302;-122.946;2023-03-01T10:56:21;0;0;
55459;PMS5003;41326;45.302;-122.946;2023-03-01T11:02:29;0;0;
55459;PMS5003;41326;45.302;-122.946;2023-03-01T11:05:03;0;0;
55459;PMS5003;41326;45.302;-122.946;2023-03-01T11:07:32;0;0;
55459;PMS5003;41326;45.302;-122.946;2023-03-01T11:12:33;1;1;
55459;PMS5003;41326;45.302;-122.946;2023-03-01T11:15:04;6;4;
55459;PMS5003;41326;45.302;-122.946;2023-03-01T11:17:34;6;5;
55459;PMS5003;41326;45.302;-122.946;2023-03-01T11:20:06;6;5;
55459;PMS5003;41326;45.302;-122.946;2023-03-01T11:22:35;5;5;
55459;PMS5003;41326;45.302;-122.946;2023-03-01T11:25:07;17;12;
55459;PMS5003;41326;45.302;-122.946;2023-03-01T11:27:36;14;14;
55459;PMS5003;41326;45.302;-122.946;2023-03-01T11:30:07;13;11;
55459;PMS5003;41326;45.302;-122.946;2023-03-01T11:32:38;14;10;
55459;PMS5003;41326;45.302;-122.946;2023-03-01T11:35:09;10;8;
55459;PMS5003;41326;45.302;-122.946;2023-03-01T11:37:39;9;7;
55459;PMS5003;41326;45.302;-122.946;2023-03-01T11:40:13;9;7;
55459;PMS5003;41326;45.302;-122.946;2023-03-01T11:42:46;10;7;
55459;PMS5003;41326;45.302;-122.946;2023-03-01T11:45:12;9;7;
55459;PMS5003;41326;45.302;-122.946;2023-03-01T11:50:16;4;4;
55459;PMS5003;41326;45.302;-122.946;2023-03-01T11:52:46;4;3;
55459;PMS5003;41326;45.302;-122.946;2023-03-01T11:55:17;0;0;
55459;PMS5003;41326;45.302;-122.946;2023-03-01T11:57:46;4;4;
55459;PMS5003;41326;45.302;-122.946;2023-03-01T12:00:18;2;2;
55459;PMS5003;41326;45.302;-122.946;2023-03-01T12:02:50;1;1;
55459;PMS5003;41326;45.302;-122.946;2023-03-01T12:05:20;1;1;
55459;PMS5003;41326;45.302;-122.946;2023-03-01T12:07:46;3;3;
55459;PMS5003;41326;45.302;-122.946;2023-03-01T12:10:19;2;2;
55459;PMS5003;41326;45.302;-122.946;2023-03-01T12:12:48;1;1;
55459;PMS5003;41326;45.302;-122.946;2023-03-01T12:17:52;3;2;
55459;PMS5003;41326;45.302;-122.946;2023-03-01T12:20:20;0;0;
55459;PMS5003;41326;45.302;-122.946;2023-03-01T12:22:52;1;1;
55459;PMS5003;41326;45.302;-122.946;2023-03-01T12:25:21;1;1;
55459;PMS5003;41326;45.302;-122.946;2023-03-01T12:27:53;0;0;
55459;PMS5003;41326;45.302;-122.946;2023-03-01T12:30:23;0;0;
55459;PMS5003;41326;45.302;-122.946;2023-03-01T12:32:51;1;1;
55459;PMS5003;41326;45.302;-122.946;2023-03-01T12:37:52;1;0;
55459;PMS5003;41326;45.302;-122.946;2023-03-01T12:40:23;1;0;
55459;PMS5003;41326;45.302;-122.946;2023-03-01T12:42:51;1;1;
55459;PMS5003;41326;45.302;-122.946;2023-03-01T12:47:54;0;0;
55459;PMS5003;41326;45.302;-122.946;2023-03-01T12:50:21;0;0;
55459;PMS5003;41326;45.302;-122.946;2023-03-01T12:52:51;0;0;
55459;PMS5003;41326;45.302;-122.946;2023-03-01T12:55:25;0;0;
55459;PMS5003;41326;45.302;-122.946;2023-03-01T12:57:53;0;0;
55459;PMS5003;41326;45.302;-122.946;2023-03-01T13:00:24;0;0;
55459;PMS5003;41326;45.302;-122.946;2023-03-01T13:02:53;0;0;
55459;PMS5003;41326;45.302;-122.946;2023-03-01T13:05:29;0;0;
55459;PMS5003;41326;45.302;-122.946;2023-03-01T13:07:55;0;0;
55459;PMS5003;41326;45.302;-122.946;2023-03-01T13:10:24;0;0;
55459;PMS5003;41326;45.302;-122.946;2023-03-01T13:15:26;0;0;
55459;PMS5003;41326;45.302;-122.946;2023-03-01T13:17:54;0;0;
55459;PMS5003;41326;45.302;-122.946;2023-03-01T13:20:26;0;0;
55459;PMS5003;41326;45.302;-122.946;2023-03-01T13:25:25;0;0;
55459;PMS5003;41326;45.302;-122.946;2023-03-01T13:38:00;0;0;
55459;PMS5003;41326;45.302;-122.946;2023-03-01T13:42:57;0;0;
55459;PMS5003;41326;45.302;-122.946;2023-03-01T13:48:00;0;0;
55459;PMS5003;41326;45.302;-122.946;2023-03-01T13:50:29;0;0;
55459;PMS5003;41326;45.302;-122.946;2023-03-01T13:52:59;0;0;
55459;PMS5003;41326;45.302;-122.946;2023-03-01T13:55:32;0;0;
55459;PMS5003;41326;45.302;-122.946;2023-03-01T13:58:00;0;0;
55459;PMS5003;41326;45.302;-122.946;2023-03-01T14:00:31;0;0;
55459;PMS5003;41326;45.302;-122.946;2023-03-01T14:03:03;0;0;
55459;PMS5003;41326;45.302;-122.946;2023-03-01T14:05:30;0;0;
55459;PMS5003;41326;45.302;-122.946;2023-03-01T14:08:01;0;0;
55459;PMS5003;41326;45.302;-122.946;2023-03-01T14:10:32;0;0;
55459;PMS5003;41326;45.302;-122.946;2023-03-01T14:13:03;0;0;
55459;PMS5003;41326;45.302;-122.946;2023-03-01T14:15:33;0;0;
55459;PMS5003;41326;45.302;-122.946;2023-03-01T14:18:03;1;0;
55459;PMS5003;41326;45.302;-122.946;2023-03-01T14:20:37;1;0;
55459;PMS5003;41326;45.302;-122.946;2023-03-01T14:23:09;0;0;
55459;PMS5003;41326;45.302;-122.946;2023-03-01T14:25:34;0;0;
55459;PMS5003;41326;45.302;-122.946;2023-03-01T14:28:10;0;0;
55459;PMS5003;41326;45.302;-122.946;2023-03-01T14:30:36;0;0;
55459;PMS5003;41326;45.302;-122.946;2023-03-01T14:33:06;0;0;
55459;PMS5003;41326;45.302;-122.946;2023-03-01T14:35:35;0;0;
55459;PMS5003;41326;45.302;-122.946;2023-03-01T14:38:06;0;0;
55459;PMS5003;41326;45.302;-122.946;2023-03-01T14:40:36;0;0;
55459;PMS5003;41326;45.302;-122.946;2023-03-01T14:43:09;0;0;
55459;PMS5003;41326;45.302;-122.946;2023-03-01T14:45:36;0;0;
55459;PMS5003;41326;45.302;-122.946;2023-03-01T14:48:07;0;0;
55459;PMS5003;41326;45.302;-122.946;2023-03-01T14:50:40;0;0;
55459;PMS5003;41326;45.302;-122.946;2023-03-01T14:53:13;0;0;
55459;PMS5003;41326;45.302;-122.946;2023-03-01T14:55:38;0;0;
55459;PMS5003;41326;45.302;-122.946;2023-03-01T14:58:11;0;0;
55459;PMS5003;41326;45.302;-122.946;2023-03-01T15:00:38;0;0;
55459;PMS5003;41326;45.302;-122.946;2023-03-01T15:03:11;0;0;
55459;PMS5003;41326;45.302;-122.946;2023-03-01T15:05:40;0;0;
55459;PMS5003;41326;45.302;-122.946;2023-03-01T15:08:13;1;1;
55459;PMS5003;41326;45.302;-122.946;2023-03-01T15:10:40;1;1;
55459;PMS5003;41326;45.302;-122.946;2023-03-01T15:13:11;0;0;
55459;PMS5003;41326;45.302;-122.946;2023-03-01T15:15:41;2;0;
55459;PMS5003;41326;45.302;-122.946;2023-03-01T15:18:14;0;0;
55459;PMS5003;41326;45.302;-122.946;2023-03-01T15:20:42;1;0;
55459;PMS5003;41326;45.302;-122.946;2023-03-01T15:25:43;0;0;
55459;PMS5003;41326;45.302;-122.946;2023-03-01T15:28:17;0;0;
55459;PMS5003;41326;45.302;-122.946;2023-03-01T15:30:43;1;1;
55459;PMS5003;41326;45.302;-122.946;2023-03-01T15:33:18;0;0;
55459;PMS5003;41326;45.302;-122.946;2023-03-01T15:35:45;1;0;
55459;PMS5003;41326;45.302;-122.946;2023-03-01T15:40:49;0;0;
55459;PMS5003;41326;45.302;-122.946;2023-03-01T15:45:46;0;0;
55459;PMS5003;41326;45.302;-122.946;2023-03-01T15:48:18;0;0;
55459;PMS5003;41326;45.302;-122.946;2023-03-01T15:53:16;0;0;
55459;PMS5003;41326;45.302;-122.946;2023-03-01T15:55:47;0;0;
55459;PMS5003;41326;45.302;-122.946;2023-03-01T15:58:18;0;0;
55459;PMS5003;41326;45.302;-122.946;2023-03-01T16:00:48;0;0;
55459;PMS5003;41326;45.302;-122.946;2023-03-01T16:03:18;0;0;
55459;PMS5003;41326;45.302;-122.946;2023-03-01T16:05:49;0;0;
55459;PMS5003;41326;45.302;-122.946;2023-03-01T16:08:19;1;0;
55459;PMS5003;41326;45.302;-122.946;2023-03-01T16:10:50;0;0;
55459;PMS5003;41326;45.302;-122.946;2023-03-01T16:13:20;0;0;
55459;PMS5003;41326;45.302;-122.946;2023-03-01T16:15:50;0;0;
55459;PMS5003;41326;45.302;-122.946;2023-03-01T16:18:21;0;0;
55459;PMS5003;41326;45.302;-122.946;2023-03-01T16:20:51;0;0;
55459;PMS5003;41326;45.302;-122.946;2023-03-01T16:23:21;0;0;
55459;PMS5003;41326;45.302;-122.946;2023-03-01T16:25:51;0;0;
55459;PMS5003;41326;45.302;-122.946;2023-03-01T16:28:22;0;0;
55459;PMS5003;41326;45.302;-122.946;2023-03-01T16:30:52;0;0;
55459;PMS5003;41326;45.302;-122.946;2023-03-01T16:33:23;1;0;
55459;PMS5003;41326;45.302;-122.946;2023-03-01T16:35:53;0;0;
55459;PMS5003;41326;45.302;-122.946;2023-03-01T16:38:23;0;0;
55459;PMS5003;41326;45.302;-122.946;2023-03-01T16:40:54;0;0;
55459;PMS5003;41326;45.302;-122.946;2023-03-01T16:43:24;0;0;
55459;PMS5003;41326;45.302;-122.946;2023-03-01T16:45:54;0;0;
55459;PMS5003;41326;45.302;-122.946;2023-03-01T16:48:24;1;0;
55459;PMS5003;41326;45.302;-122.946;2023-03-01T16:50:56;0;0;
55459;PMS5003;41326;45.302;-122.946;2023-03-01T16:53:25;0;0;
55459;PMS5003;41326;45.302;-122.946;2023-03-01T16:55:56;0;0;
55459;PMS5003;41326;45.302;-122.946;2023-03-01T16:58:26;0;0;
55459;PMS5003;41326;45.302;-122.946;2023-03-01T17:00:56;0;0;
55459;PMS5003;41326;45.302;-122.946;2023-03-01T17:03:26;0;0;
55459;PMS5003;41326;45.302;-122.946;2023-03-01T17:05:57;1;0;
55459;PMS5003;41326;45.302;-122.946;2023-03-01T17:08:27;0;0;
55459;PMS5003;41326;45.302;-122.946;2023-03-01T17:13:28;0;0;
55459;PMS5003;41326;45.302;-122.946;2023-03-01T17:15:58;0;0;
55459;PMS5003;41326;45.302;-122.946;2023-03-01T17:18:28;0;0;
55459;PMS5003;41326;45.302;-122.946;2023-03-01T17:20:59;2;0;
55459;PMS5003;41326;45.302;-122.946;2023-03-01T17:23:29;0;0;